North Afton, New York
Current Conditions -  °F | °C
As of 9:53 AM on Tuesday 21 Oct 2014 (Local Time) from KBGM Reporting Station
Overcast Overcast  
Wind Chill: 50°   Ceiling: 2200
Heat Index: 50°   Visibility: 10mi
Dew Point: 46°   Wind: 7mph
Humidity: 86%   Direction: 160°SSE
Pressure: 29.85"   Gusts: NA
Location:  42.2584°N, 75.57°W
Report Text: KBGM 211353Z 16006KT 10SM BKN022 OVC038 10/08 A2985 RMK AO2 SLP113 T01000078
Loading
Personal Weather Stations






























Interactive Weather Map
Tropical Storm Tracking
New forecast layout! Learn more

10-Day Weather Forecast

Advertisements
Track Severe Weather on mobile